Time;durP1;ratioP1;P1;durP2;ratioP2;P2;SDS_P1;SDS_P2;PMS_P1;PMS_P2;Temp;Humidity;BMP_temperature;BMP_pressure;BME280_temperature;BME280_humidity;BME280_pressure;Samples;Min_cycle;Max_cycle;Signal;HPM_P1;HPM_P2
2022/09/16 00:00:36;;;;;;;5.43;1.20;;;10.90;90.50;;;;;;4990690;28;20026;-57
2022/09/16 00:03:02;;;;;;;10.82;1.30;;;10.80;90.60;;;;;;4989023;28;20034;-55
2022/09/16 00:05:30;;;;;;;9.02;2.53;;;10.80;90.60;;;;;;4990179;28;20073;-51
2022/09/16 00:07:55;;;;;;;5.97;1.50;;;10.70;90.70;;;;;;4990284;28;20129;-53
2022/09/16 00:10:22;;;;;;;5.43;1.50;;;10.70;90.80;;;;;;4989796;28;20508;-52
2022/09/16 00:12:48;;;;;;;5.40;1.70;;;10.70;90.90;;;;;;4989833;28;20040;-53
2022/09/16 00:15:14;;;;;;;11.50;2.08;;;10.80;91.10;;;;;;4982931;28;20027;-65
2022/09/16 00:17:40;;;;;;;6.03;1.50;;;10.80;91.20;;;;;;4970450;28;20031;-63
2022/09/16 00:20:07;;;;;;;6.10;1.40;;;10.90;91.50;;;;;;4969807;28;20367;-59
2022/09/16 00:22:33;;;;;;;7.15;1.60;;;10.90;91.60;;;;;;4970839;28;20022;-57
2022/09/16 00:24:58;;;;;;;11.48;1.80;;;10.90;91.60;;;;;;4969656;28;20121;-57
2022/09/16 00:27:26;;;;;;;5.25;1.40;;;10.90;91.30;;;;;;4970798;28;20516;-58
2022/09/16 00:29:52;;;;;;;7.65;2.20;;;10.90;91.10;;;;;;4970893;28;20035;-55
2022/09/16 00:32:20;;;;;;;3.92;1.10;;;10.90;91.00;;;;;;4970701;28;20031;-55
2022/09/16 00:34:46;;;;;;;6.03;1.13;;;10.80;91.00;;;;;;4970592;28;20035;-55
2022/09/16 00:37:11;;;;;;;8.32;1.45;;;10.90;91.00;;;;;;4970533;28;20344;-56
2022/09/16 00:39:37;;;;;;;7.53;1.90;;;10.90;91.00;;;;;;4970765;28;20089;-55
2022/09/16 00:42:03;;;;;;;8.77;1.80;;;10.80;91.00;;;;;;4970593;28;20027;-54
2022/09/16 00:44:48;;;;;;;8.10;1.63;;;10.80;90.90;;;;;;4970770;28;20138;-55
2022/09/16 00:47:18;;;;;;;7.30;1.48;;;10.80;90.90;;;;;;4970599;28;20125;-56
2022/09/16 00:49:44;;;;;;;9.43;1.52;;;10.80;90.90;;;;;;4973059;28;20042;-55
2022/09/16 00:52:10;;;;;;;6.97;1.27;;;10.80;90.90;;;;;;4983275;28;20034;-54
2022/09/16 00:54:39;;;;;;;8.93;1.25;;;10.80;91.10;;;;;;4976292;28;20050;-56
2022/09/16 00:57:07;;;;;;;14.35;2.75;;;10.80;91.20;;;;;;4970109;28;20121;-56
2022/09/16 00:59:36;;;;;;;7.10;1.63;;;10.80;91.20;;;;;;4987541;28;20026;-53
2022/09/16 01:02:09;;;;;;;6.47;1.13;;;10.80;91.00;;;;;;4989926;28;20034;-54
2022/09/16 01:04:45;;;;;;;11.13;1.77;;;10.70;91.10;;;;;;4988677;28;20026;-56
2022/09/16 01:07:14;;;;;;;4.43;1.50;;;10.70;91.00;;;;;;4989857;28;20057;-57
2022/09/16 01:09:42;;;;;;;8.43;1.42;;;10.70;91.20;;;;;;4989658;28;20113;-55
2022/09/16 01:12:07;;;;;;;5.13;1.30;;;10.70;91.20;;;;;;4989829;28;20038;-56
2022/09/16 01:17:28;;;;;;;9.38;2.35;;;10.70;91.30;;;;;;4989462;28;20812;-56
2022/09/16 01:20:20;;;;;;;6.20;1.80;;;10.70;91.30;;;;;;4989403;28;20030;-55
2022/09/16 01:22:51;;;;;;;8.38;1.55;;;10.70;91.40;;;;;;4992116;28;20022;-53
2022/09/16 01:25:50;;;;;;;7.32;2.65;;;10.70;91.30;;;;;;4993465;28;20097;-54
2022/09/16 01:28:33;;;;;;;6.88;1.50;;;10.80;91.40;;;;;;4992983;28;20407;-55
2022/09/16 01:31:15;;;;;;;3.97;1.80;;;10.80;91.40;;;;;;4993177;28;20049;-55
2022/09/16 01:33:46;;;;;;;6.35;1.33;;;10.80;91.40;;;;;;4993363;28;20042;-54
2022/09/16 01:36:32;;;;;;;10.70;2.40;;;10.80;91.40;;;;;;4993364;28;20030;-55
2022/09/16 01:39:19;;;;;;;6.35;1.30;;;10.80;91.30;;;;;;4991948;28;20076;-53
2022/09/16 01:42:14;;;;;;;8.32;1.55;;;10.80;91.40;;;;;;4992811;28;20087;-52
2022/09/16 01:44:59;;;;;;;7.50;1.42;;;10.90;91.40;;;;;;4990980;28;20395;-53
2022/09/16 01:47:46;;;;;;;7.30;1.35;;;10.90;91.40;;;;;;5007785;28;20141;-51
2022/09/16 01:50:31;;;;;;;6.25;1.63;;;10.80;91.30;;;;;;4992596;28;20061;-55
2022/09/16 01:53:16;;;;;;;9.80;1.33;;;10.80;91.20;;;;;;4992890;28;20022;-51
2022/09/16 01:55:55;;;;;;;2.08;0.80;;;10.90;91.20;;;;;;4992892;28;20034;-50
2022/09/16 01:58:30;;;;;;;7.70;1.42;;;10.90;91.30;;;;;;4992747;28;20355;-51
2022/09/16 02:01:01;;;;;;;5.07;1.38;;;10.90;91.20;;;;;;4992455;28;20046;-53
2022/09/16 02:03:34;;;;;;;5.78;1.35;;;10.80;91.00;;;;;;4992928;28;20169;-51
2022/09/16 02:06:12;;;;;;;10.73;2.40;;;10.70;91.10;;;;;;4972933;28;20038;-51
2022/09/16 02:08:46;;;;;;;6.68;1.20;;;10.70;91.10;;;;;;4973544;28;20050;-51
2022/09/16 02:11:16;;;;;;;6.53;1.13;;;10.70;91.20;;;;;;4972276;28;20042;-53
2022/09/16 02:13:51;;;;;;;5.55;1.20;;;10.70;91.30;;;;;;4988517;28;20026;-55
2022/09/16 02:16:28;;;;;;;11.25;1.80;;;10.70;91.20;;;;;;4972713;28;20463;-53
2022/09/16 02:19:01;;;;;;;6.10;1.98;;;10.70;91.20;;;;;;4973087;28;20622;-51
2022/09/16 02:21:30;;;;;;;6.05;1.00;;;10.70;91.10;;;;;;4973181;28;20037;-55
2022/09/16 02:24:09;;;;;;;10.07;1.55;;;10.80;91.00;;;;;;4973336;28;20061;-53
2022/09/16 02:26:46;;;;;;;6.47;1.25;;;10.70;90.90;;;;;;4972694;28;20035;-56
2022/09/16 02:29:20;;;;;;;9.32;1.50;;;10.70;90.80;;;;;;4972773;28;20049;-51
2022/09/16 02:31:47;;;;;;;10.77;1.75;;;10.70;90.80;;;;;;4972864;28;20080;-50
2022/09/16 02:34:17;;;;;;;9.63;2.33;;;10.70;90.90;;;;;;4971969;28;20138;-51
2022/09/16 02:36:46;;;;;;;13.68;2.70;;;10.70;90.80;;;;;;4972411;28;20038;-55
2022/09/16 02:39:17;;;;;;;9.03;1.80;;;10.70;90.80;;;;;;4972594;28;20036;-54
2022/09/16 02:41:42;;;;;;;7.97;1.85;;;10.90;90.70;;;;;;4973054;28;20031;-56
2022/09/16 02:44:10;;;;;;;11.30;2.00;;;10.90;90.70;;;;;;4992318;28;20026;-55
2022/09/16 02:46:47;;;;;;;8.07;1.45;;;10.90;90.40;;;;;;4990552;28;20069;-51
2022/09/16 02:49:43;;;;;;;5.10;1.25;;;11.00;90.40;;;;;;4992232;28;20030;-52
2022/09/16 02:52:30;;;;;;;5.65;1.55;;;10.90;90.20;;;;;;4987143;28;20464;-51
2022/09/16 02:55:01;;;;;;;6.60;1.60;;;10.90;90.30;;;;;;4990046;28;20042;-54
2022/09/16 02:57:27;;;;;;;13.25;1.70;;;10.90;90.20;;;;;;4971095;28;20042;-53
2022/09/16 02:59:53;;;;;;;4.60;2.00;;;10.90;90.40;;;;;;4974080;28;20027;-51
2022/09/16 03:02:20;;;;;;;10.98;1.63;;;10.80;90.30;;;;;;4990956;28;20097;-50
2022/09/16 03:04:46;;;;;;;10.57;1.42;;;10.80;90.50;;;;;;4990709;28;20069;-52
2022/09/16 03:07:12;;;;;;;6.78;1.10;;;10.70;90.30;;;;;;4990592;28;20026;-50
2022/09/16 03:09:44;;;;;;;6.25;2.08;;;10.70;90.20;;;;;;4990731;28;20026;-54
2022/09/16 03:12:19;;;;;;;9.95;1.65;;;10.60;90.30;;;;;;4991674;28;20027;-55
2022/09/16 03:15:06;;;;;;;12.40;2.28;;;10.40;89.30;;;;;;4990830;28;20480;-51
2022/09/16 03:17:59;;;;;;;7.50;1.55;;;10.40;87.00;;;;;;4991446;28;20432;-51
2022/09/16 03:20:33;;;;;;;7.60;1.40;;;10.50;84.30;;;;;;4991482;28;20030;-49
2022/09/16 03:23:07;;;;;;;7.30;1.13;;;10.60;83.40;;;;;;4991282;28;20035;-49
2022/09/16 03:26:05;;;;;;;7.88;1.50;;;10.70;83.60;;;;;;4991244;28;20428;-49
2022/09/16 03:28:42;;;;;;;12.43;3.08;;;10.70;83.50;;;;;;4990589;28;20073;-48
2022/09/16 03:31:20;;;;;;;24.33;2.42;;;10.80;83.50;;;;;;4989830;28;20055;-51
2022/09/16 03:34:24;;;;;;;9.23;2.30;;;11.00;84.50;;;;;;4989967;28;20034;-48
2022/09/16 03:36:58;;;;;;;10.07;1.50;;;11.00;85.10;;;;;;4989264;28;20705;-54
2022/09/16 03:39:23;;;;;;;6.90;1.05;;;11.10;85.50;;;;;;4991291;28;20034;-50
2022/09/16 03:41:50;;;;;;;5.25;1.45;;;11.10;85.80;;;;;;4989841;28;20022;-51
2022/09/16 03:44:16;;;;;;;5.82;1.30;;;11.00;86.40;;;;;;4990125;28;20336;-53
2022/09/16 03:46:41;;;;;;;12.73;2.30;;;11.00;86.70;;;;;;4990504;28;20050;-51
2022/09/16 03:49:07;;;;;;;9.35;1.40;;;10.90;87.10;;;;;;4991081;28;20034;-54
2022/09/16 03:51:32;;;;;;;10.02;2.50;;;10.80;87.20;;;;;;4990766;28;20475;-53
2022/09/16 03:53:58;;;;;;;8.50;1.40;;;10.70;87.60;;;;;;4990951;28;20033;-53
2022/09/16 03:56:24;;;;;;;5.95;1.88;;;10.60;87.80;;;;;;4990772;28;20030;-51
2022/09/16 03:58:50;;;;;;;8.43;2.15;;;10.50;88.10;;;;;;4978295;28;20393;-54
2022/09/16 04:01:16;;;;;;;12.77;2.08;;;10.40;88.30;;;;;;4970838;28;20384;-54
2022/09/16 04:03:41;;;;;;;10.65;1.73;;;10.40;88.50;;;;;;4970803;28;20027;-54
2022/09/16 04:06:08;;;;;;;8.40;1.58;;;10.20;88.70;;;;;;4970633;28;20447;-56
2022/09/16 04:08:38;;;;;;;8.57;1.50;;;10.20;88.90;;;;;;4969691;28;20059;-53
2022/09/16 04:11:05;;;;;;;9.77;1.35;;;10.20;89.20;;;;;;4970367;28;20037;-51
2022/09/16 04:13:32;;;;;;;10.70;2.70;;;10.20;89.50;;;;;;4970603;28;20103;-55
2022/09/16 04:15:59;;;;;;;10.93;2.05;;;10.20;89.60;;;;;;4969483;28;20455;-55
2022/09/16 04:18:29;;;;;;;10.25;1.92;;;10.20;89.40;;;;;;4969508;28;20042;-51
2022/09/16 04:20:58;;;;;;;9.07;1.45;;;10.20;89.00;;;;;;4969853;28;20071;-51
2022/09/16 04:23:25;;;;;;;9.00;1.70;;;10.40;88.20;;;;;;4970882;28;20102;-55
2022/09/16 04:25:58;;;;;;;11.00;2.35;;;10.40;87.90;;;;;;4970669;28;20069;-52
2022/09/16 04:28:24;;;;;;;7.80;1.70;;;10.50;87.60;;;;;;4953898;28;20083;-55
2022/09/16 04:30:53;;;;;;;8.32;1.85;;;10.40;87.50;;;;;;4970468;28;20041;-55
2022/09/16 04:33:19;;;;;;;8.48;1.45;;;10.40;87.50;;;;;;4970826;28;20019;-52
2022/09/16 04:35:44;;;;;;;9.07;1.38;;;10.40;87.70;;;;;;4976229;28;20104;-51
2022/09/16 04:38:10;;;;;;;10.88;1.83;;;10.30;87.80;;;;;;4982581;28;20534;-56
2022/09/16 04:40:38;;;;;;;10.80;1.63;;;10.20;87.90;;;;;;4988062;28;20117;-56
2022/09/16 04:43:04;;;;;;;6.70;1.38;;;10.20;88.20;;;;;;4983642;28;20032;-54
2022/09/16 04:45:31;;;;;;;6.50;1.50;;;10.20;88.20;;;;;;4980137;28;20122;-55
2022/09/16 04:47:57;;;;;;;10.38;1.80;;;10.20;88.20;;;;;;4980679;28;20042;-50
2022/09/16 04:50:23;;;;;;;14.27;1.77;;;10.20;88.20;;;;;;4979417;28;20018;-54
2022/09/16 04:52:50;;;;;;;11.25;3.00;;;10.20;88.30;;;;;;4980408;28;20018;-56
2022/09/16 04:55:22;;;;;;;8.18;1.92;;;10.20;88.30;;;;;;4984783;28;20037;-55
2022/09/16 04:57:48;;;;;;;10.35;1.55;;;10.30;88.40;;;;;;4978099;28;20059;-52
2022/09/16 05:00:14;;;;;;;7.07;1.63;;;10.30;88.50;;;;;;4996156;28;20053;-52
2022/09/16 05:02:42;;;;;;;13.40;2.35;;;10.30;88.30;;;;;;4978609;28;20359;-53
2022/09/16 05:05:08;;;;;;;8.32;2.40;;;10.40;88.30;;;;;;4980460;28;20609;-55
2022/09/16 05:07:33;;;;;;;5.75;1.25;;;10.50;88.10;;;;;;4978891;28;20030;-53
2022/09/16 05:10:01;;;;;;;9.65;3.85;;;10.50;87.70;;;;;;4983195;28;20561;-56
2022/09/16 05:12:27;;;;;;;8.95;2.15;;;10.60;87.10;;;;;;4999937;28;20094;-53
2022/09/16 05:14:52;;;;;;;10.43;2.42;;;10.70;86.70;;;;;;4984860;28;20026;-51
2022/09/16 05:17:18;;;;;;;7.45;1.95;;;10.80;86.10;;;;;;4984381;28;20476;-53
2022/09/16 05:19:44;;;;;;;12.02;1.50;;;10.90;85.60;;;;;;4972900;28;20062;-51
2022/09/16 05:22:09;;;;;;;9.48;1.50;;;11.00;85.00;;;;;;4976581;28;20027;-50
2022/09/16 05:24:37;;;;;;;8.95;1.77;;;11.20;84.20;;;;;;4982918;28;20390;-53
2022/09/16 05:27:03;;;;;;;12.35;2.40;;;11.20;84.40;;;;;;4972217;28;20037;-55
2022/09/16 05:29:28;;;;;;;10.95;1.77;;;11.30;83.80;;;;;;4979336;28;20028;-52
2022/09/16 05:31:57;;;;;;;9.82;1.40;;;11.30;83.20;;;;;;4995518;28;20036;-54
2022/09/16 05:34:27;;;;;;;9.23;1.88;;;11.40;82.30;;;;;;4974947;28;20023;-55
2022/09/16 05:36:53;;;;;;;6.60;1.20;;;11.40;82.00;;;;;;4983309;28;20424;-53
2022/09/16 05:39:19;;;;;;;7.18;2.58;;;11.40;82.50;;;;;;4979310;28;20472;-52
2022/09/16 05:41:45;;;;;;;15.20;3.38;;;11.40;82.80;;;;;;4979545;28;20042;-55
2022/09/16 05:44:11;;;;;;;10.73;1.77;;;11.30;83.00;;;;;;4988104;28;20048;-53
2022/09/16 05:46:39;;;;;;;10.30;2.03;;;11.20;83.40;;;;;;4987245;28;20480;-50
2022/09/16 05:49:05;;;;;;;12.63;2.58;;;11.30;83.70;;;;;;4980667;28;20039;-54
2022/09/16 05:51:31;;;;;;;15.18;2.63;;;11.20;83.90;;;;;;4992441;28;20019;-53
2022/09/16 05:53:58;;;;;;;8.95;1.95;;;11.20;84.20;;;;;;4981668;28;20053;-53
2022/09/16 05:56:25;;;;;;;14.30;2.95;;;11.20;84.30;;;;;;4983862;28;20030;-52
2022/09/16 05:58:52;;;;;;;8.50;1.95;;;11.10;84.40;;;;;;4978192;28;20100;-52
2022/09/16 06:01:21;;;;;;;8.07;1.90;;;11.10;84.10;;;;;;4978584;28;20102;-55
2022/09/16 06:03:53;;;;;;;12.05;2.55;;;11.10;84.50;;;;;;4984786;28;20030;-54
2022/09/16 06:06:26;;;;;;;7.40;1.40;;;11.00;84.80;;;;;;4975910;28;20081;-52
2022/09/16 06:08:57;;;;;;;8.45;1.63;;;11.00;85.20;;;;;;4977792;28;20047;-54
2022/09/16 06:11:25;;;;;;;6.20;1.67;;;11.00;85.80;;;;;;5002807;28;20026;-55
2022/09/16 06:13:55;;;;;;;9.88;2.20;;;10.90;86.30;;;;;;5003056;28;20364;-53
2022/09/16 06:16:24;;;;;;;10.32;2.42;;;10.90;86.60;;;;;;4989436;28;20030;-54
2022/09/16 06:18:50;;;;;;;10.25;2.17;;;10.90;86.60;;;;;;4992000;28;20042;-53
2022/09/16 06:21:16;;;;;;;7.20;1.42;;;10.90;86.20;;;;;;4992222;28;20045;-52
2022/09/16 06:23:41;;;;;;;10.27;1.55;;;11.00;86.00;;;;;;4991491;28;20359;-55
2022/09/16 06:26:16;;;;;;;11.25;1.27;;;11.10;86.20;;;;;;4992245;28;20038;-52
2022/09/16 06:28:42;;;;;;;8.25;1.90;;;11.10;85.80;;;;;;5007366;28;20054;-52
2022/09/16 06:31:13;;;;;;;10.35;1.80;;;11.10;85.80;;;;;;4992352;28;20034;-53
2022/09/16 06:33:39;;;;;;;11.85;1.92;;;11.30;85.90;;;;;;4991642;28;20064;-53
2022/09/16 06:36:17;;;;;;;10.52;1.80;;;11.50;85.60;;;;;;4990815;28;20045;-52
2022/09/16 06:38:44;;;;;;;11.07;1.65;;;11.60;85.30;;;;;;4991996;28;20027;-50
2022/09/16 06:41:11;;;;;;;14.25;2.70;;;11.70;85.10;;;;;;4977538;28;20619;-48
2022/09/16 06:43:37;;;;;;;16.08;2.88;;;11.80;84.90;;;;;;4976159;28;20031;-50
2022/09/16 06:46:09;;;;;;;14.02;1.63;;;11.80;83.90;;;;;;4971917;28;20364;-50
2022/09/16 06:48:35;;;;;;;7.70;1.83;;;11.90;83.80;;;;;;4972462;28;20027;-48
2022/09/16 06:51:05;;;;;;;11.02;2.05;;;12.00;83.30;;;;;;4972446;28;20035;-50
2022/09/16 06:53:32;;;;;;;11.95;1.92;;;12.20;83.50;;;;;;4976351;28;20430;-53
2022/09/16 06:56:05;;;;;;;11.82;2.03;;;12.30;83.10;;;;;;4981580;28;20034;-50
2022/09/16 06:58:33;;;;;;;10.38;1.80;;;12.40;82.70;;;;;;4988862;28;20455;-49
2022/09/16 07:01:03;;;;;;;6.85;2.05;;;12.50;82.70;;;;;;4999948;28;20037;-49
2022/09/16 07:03:29;;;;;;;13.95;2.15;;;12.60;82.80;;;;;;4975473;28;20030;-48
2022/09/16 07:06:00;;;;;;;9.70;1.95;;;12.60;81.80;;;;;;4972683;28;20415;-50
2022/09/16 07:08:30;;;;;;;7.20;1.65;;;12.80;80.70;;;;;;5001574;28;20045;-47
2022/09/16 07:11:11;;;;;;;9.20;1.38;;;12.90;77.70;;;;;;4993986;28;20033;-47
2022/09/16 07:13:37;;;;;;;11.07;2.33;;;13.10;78.30;;;;;;4991160;28;20030;-45
2022/09/16 07:16:05;;;;;;;12.43;2.55;;;13.30;77.50;;;;;;4989677;28;20030;-45
2022/09/16 07:18:34;;;;;;;14.70;2.10;;;13.40;76.80;;;;;;4985364;28;20041;-47
2022/09/16 07:21:11;;;;;;;11.70;2.90;;;13.20;78.30;;;;;;4983814;28;20023;-47
2022/09/16 07:23:40;;;;;;;7.28;1.90;;;12.80;79.60;;;;;;4988665;28;20082;-50
2022/09/16 07:26:11;;;;;;;12.98;2.92;;;12.50;80.30;;;;;;4991633;28;20034;-46
2022/09/16 07:28:38;;;;;;;12.93;2.65;;;12.50;79.50;;;;;;4988625;28;20041;-48
2022/09/16 07:31:08;;;;;;;15.05;2.85;;;12.50;80.70;;;;;;4984395;28;20109;-49
2022/09/16 07:33:46;;;;;;;13.80;2.42;;;12.50;80.50;;;;;;4979560;28;20432;-46
2022/09/16 07:36:15;;;;;;;12.57;2.22;;;12.50;79.80;;;;;;4988457;28;20483;-46
2022/09/16 07:38:40;;;;;;;10.98;2.40;;;12.50;78.80;;;;;;4989484;28;20089;-48
2022/09/16 07:41:14;;;;;;;7.40;1.80;;;12.50;78.90;;;;;;5002704;28;20034;-47
2022/09/16 07:43:41;;;;;;;6.40;1.48;;;12.80;77.30;;;;;;4990066;28;20036;-45
2022/09/16 07:46:09;;;;;;;8.98;1.60;;;13.20;76.70;;;;;;4987010;28;20042;-44
2022/09/16 07:48:36;;;;;;;8.57;1.85;;;13.60;75.40;;;;;;4978345;28;20502;-46
2022/09/16 07:51:08;;;;;;;11.98;2.35;;;13.80;75.70;;;;;;4980822;28;20077;-44
2022/09/16 07:53:34;;;;;;;9.40;1.85;;;13.90;74.90;;;;;;4987772;28;20032;-45
2022/09/16 07:56:05;;;;;;;8.25;1.40;;;14.00;72.50;;;;;;4985310;28;20380;-48
2022/09/16 07:58:30;;;;;;;9.18;1.67;;;13.80;73.30;;;;;;4980720;28;20024;-47
2022/09/16 08:00:57;;;;;;;9.65;1.70;;;13.60;72.20;;;;;;4993281;28;20827;-45
2022/09/16 08:03:22;;;;;;;6.72;2.17;;;13.60;72.90;;;;;;4989528;28;20023;-46
2022/09/16 08:05:48;;;;;;;7.00;1.40;;;13.90;72.40;;;;;;5001506;28;20404;-47
2022/09/16 08:08:13;;;;;;;11.57;2.95;;;14.20;72.70;;;;;;4970382;28;20102;-50
2022/09/16 08:10:40;;;;;;;8.32;1.83;;;14.50;73.00;;;;;;4976788;28;20030;-45
2022/09/16 08:13:07;;;;;;;13.25;2.95;;;14.90;72.50;;;;;;5008182;28;20030;-49
2022/09/16 08:15:33;;;;;;;9.32;1.52;;;15.10;71.80;;;;;;5007651;28;20060;-46
2022/09/16 08:17:58;;;;;;;9.65;2.17;;;15.50;71.80;;;;;;5008999;28;20026;-48
2022/09/16 08:20:27;;;;;;;7.50;1.83;;;15.80;70.90;;;;;;4975733;28;20337;-45
2022/09/16 08:22:55;;;;;;;12.38;1.83;;;16.00;68.70;;;;;;4969979;28;20069;-45
2022/09/16 08:25:21;;;;;;;6.85;2.20;;;15.90;68.40;;;;;;4970074;28;20027;-46
2022/09/16 08:27:46;;;;;;;10.75;2.20;;;15.70;66.60;;;;;;4969320;28;20368;-46
2022/09/16 08:30:12;;;;;;;10.80;2.00;;;15.90;67.40;;;;;;4968958;28;20051;-47
2022/09/16 08:32:38;;;;;;;8.18;2.28;;;15.60;66.90;;;;;;4969703;28;20031;-47
2022/09/16 08:35:04;;;;;;;13.35;3.60;;;15.50;68.20;;;;;;4970107;28;20033;-47
2022/09/16 08:37:30;;;;;;;8.65;1.80;;;15.30;68.40;;;;;;4972383;28;20464;-47
2022/09/16 08:39:57;;;;;;;7.78;1.42;;;15.40;67.60;;;;;;4981039;28;20030;-47
2022/09/16 08:42:44;;;;;;;5.03;1.08;;;14.80;70.80;;;;;;4989767;28;20073;-47
2022/09/16 08:45:31;;;;;;;8.85;1.70;;;14.10;71.70;;;;;;4989417;28;20042;-49
2022/09/16 08:48:26;;;;;;;4.50;0.82;;;13.70;73.30;;;;;;5003977;28;20380;-49
2022/09/16 08:50:52;;;;;;;7.32;1.20;;;13.40;74.00;;;;;;4988925;28;20030;-48
2022/09/16 08:53:59;;;;;;;6.68;0.85;;;13.30;74.10;;;;;;4988920;28;20106;-49
2022/09/16 08:56:33;;;;;;;7.25;1.27;;;13.30;75.60;;;;;;4986438;28;20066;-47
2022/09/16 08:59:00;;;;;;;7.43;1.45;;;13.40;76.10;;;;;;4987107;28;20034;-47
2022/09/16 09:01:53;;;;;;;5.82;0.98;;;13.60;75.90;;;;;;4979006;28;20049;-47
2022/09/16 09:04:19;;;;;;;11.80;1.50;;;13.90;76.50;;;;;;4969940;28;20038;-48
2022/09/16 09:06:54;;;;;;;6.57;1.17;;;14.20;76.10;;;;;;4968901;28;20356;-47
2022/09/16 09:09:29;;;;;;;9.65;2.53;;;14.50;75.20;;;;;;4970141;28;20027;-49
2022/09/16 09:12:23;;;;;;;10.13;2.65;;;14.70;74.40;;;;;;4995563;28;20038;-46
2022/09/16 09:14:52;;;;;;;12.40;2.30;;;14.90;73.80;;;;;;5013757;28;20044;-48
2022/09/16 09:17:45;;;;;;;5.40;2.47;;;15.40;73.30;;;;;;5015011;28;20354;-48
2022/09/16 09:20:23;;;;;;;8.43;1.80;;;15.30;72.70;;;;;;5005970;28;20022;-49
2022/09/16 09:23:25;;;;;;;9.32;2.60;;;14.70;75.20;;;;;;5008413;28;20061;-48
2022/09/16 09:26:30;;;;;;;6.45;1.55;;;14.10;77.40;;;;;;5007053;28;20167;-49
2022/09/16 09:29:22;;;;;;;10.40;2.58;;;13.80;79.30;;;;;;4986882;28;20041;-49
2022/09/16 09:32:03;;;;;;;13.50;2.40;;;14.10;81.00;;;;;;4956368;28;20045;-50
2022/09/16 09:34:41;;;;;;;14.27;2.42;;;14.60;80.70;;;;;;4996881;28;20025;-47
2022/09/16 09:37:24;;;;;;;7.00;1.50;;;15.20;77.70;;;;;;4969415;28;20042;-48
2022/09/16 09:39:56;;;;;;;9.20;1.23;;;15.60;75.10;;;;;;4969435;28;20027;-47
2022/09/16 09:42:36;;;;;;;4.65;0.88;;;15.90;70.90;;;;;;4994168;28;20017;-47
2022/09/16 09:45:12;;;;;;;5.18;1.13;;;16.00;66.90;;;;;;5011332;28;20046;-46
2022/09/16 09:47:46;;;;;;;8.60;1.25;;;15.70;66.30;;;;;;5012007;28;20141;-47
2022/09/16 09:50:29;;;;;;;7.63;1.73;;;15.60;66.40;;;;;;5012270;28;20805;-48
2022/09/16 09:53:17;;;;;;;7.55;1.20;;;15.80;67.00;;;;;;5010784;28;20037;-47
2022/09/16 09:55:43;;;;;;;10.73;2.40;;;16.20;67.80;;;;;;4989751;28;20022;-48
2022/09/16 09:58:12;;;;;;;9.93;2.10;;;16.20;65.90;;;;;;4990555;28;20160;-53
2022/09/16 10:00:37;;;;;;;10.13;2.60;;;16.30;66.60;;;;;;4991456;28;20026;-48
2022/09/16 10:03:08;;;;;;;11.57;2.67;;;16.80;65.90;;;;;;4991931;28;20399;-51
2022/09/16 10:05:35;;;;;;;14.85;2.50;;;16.60;69.70;;;;;;4991731;28;20464;-57
2022/09/16 10:08:08;;;;;;;12.00;2.85;;;15.40;73.30;;;;;;4988492;28;20038;-51
2022/09/16 10:10:39;;;;;;;17.27;3.17;;;14.80;77.50;;;;;;4971687;28;20058;-52
2022/09/16 10:13:12;;;;;;;19.10;3.08;;;14.80;79.10;;;;;;4972044;28;20061;-53
2022/09/16 10:15:38;;;;;;;18.00;3.17;;;15.10;80.50;;;;;;4972488;28;20085;-47
2022/09/16 10:18:12;;;;;;;14.48;3.15;;;15.40;78.40;;;;;;4971752;28;20034;-52
2022/09/16 10:20:42;;;;;;;20.55;3.20;;;15.30;75.40;;;;;;4972618;28;20032;-47
2022/09/16 10:23:16;;;;;;;14.75;2.58;;;15.10;74.10;;;;;;4984722;28;20018;-50
2022/09/16 10:25:42;;;;;;;13.45;2.97;;;14.90;74.50;;;;;;4986206;28;20108;-49
2022/09/16 10:28:24;;;;;;;12.55;2.50;;;14.70;75.30;;;;;;4979918;28;20381;-49
2022/09/16 10:30:53;;;;;;;9.20;1.95;;;14.40;76.20;;;;;;5002399;28;20045;-47
2022/09/16 10:33:34;;;;;;;11.85;2.38;;;14.10;77.60;;;;;;4993460;28;20497;-48
2022/09/16 10:36:07;;;;;;;10.23;1.80;;;14.00;78.90;;;;;;5010469;28;20041;-48
2022/09/16 10:38:43;;;;;;;8.93;1.60;;;14.10;78.30;;;;;;5006563;28;20363;-46
2022/09/16 10:41:22;;;;;;;9.75;2.25;;;14.30;77.40;;;;;;4991529;28;20045;-48
2022/09/16 10:44:01;;;;;;;7.60;1.73;;;14.40;77.90;;;;;;4995972;28;20125;-48
2022/09/16 10:46:28;;;;;;;9.98;3.15;;;14.60;75.10;;;;;;4987591;28;20046;-46
2022/09/16 10:49:00;;;;;;;11.70;1.88;;;15.00;74.00;;;;;;4979271;28;20023;-47
2022/09/16 10:51:29;;;;;;;8.27;2.03;;;15.10;73.20;;;;;;5002844;28;20052;-48
2022/09/16 10:53:57;;;;;;;7.95;2.65;;;15.00;75.30;;;;;;4994338;28;20030;-47
2022/09/16 10:56:31;;;;;;;10.35;2.63;;;15.30;71.40;;;;;;4981532;28;20067;-47
2022/09/16 10:59:18;;;;;;;15.75;2.75;;;15.40;70.50;;;;;;4999884;28;20490;-46
2022/09/16 11:02:03;;;;;;;11.50;2.55;;;15.60;69.20;;;;;;5003530;28;20489;-47
2022/09/16 11:04:53;;;;;;;10.98;1.95;;;15.80;66.50;;;;;;4998791;28;20022;-47
2022/09/16 11:07:27;;;;;;;11.90;2.05;;;16.00;67.10;;;;;;5000632;28;20014;-49
2022/09/16 11:09:55;;;;;;;8.48;2.35;;;16.30;67.40;;;;;;4994717;28;20026;-45
2022/09/16 11:12:42;;;;;;;15.45;3.03;;;16.30;68.90;;;;;;4991360;28;20014;-48
2022/09/16 11:15:10;;;;;;;13.50;3.35;;;16.20;71.60;;;;;;4999100;28;20033;-52
2022/09/16 11:17:36;;;;;;;11.10;3.13;;;15.90;72.70;;;;;;4998727;28;20049;-46
2022/09/16 11:20:21;;;;;;;9.98;2.28;;;15.70;72.90;;;;;;4999524;28;20122;-48
2022/09/16 11:22:57;;;;;;;15.00;3.08;;;15.50;71.20;;;;;;4997257;28;20422;-50
2022/09/16 11:25:49;;;;;;;16.75;3.72;;;15.40;70.50;;;;;;4999201;28;20045;-48
2022/09/16 11:28:39;;;;;;;16.65;3.35;;;15.30;70.60;;;;;;4999182;28;20030;-52
2022/09/16 11:31:27;;;;;;;11.52;3.13;;;15.20;73.30;;;;;;4998346;28;20026;-57
2022/09/16 11:33:59;;;;;;;14.40;2.95;;;14.30;77.40;;;;;;4999004;28;20084;-57
2022/09/16 11:36:51;;;;;;;15.38;3.15;;;14.00;80.80;;;;;;4996171;28;20032;-56
2022/09/16 11:39:47;;;;;;;12.30;3.03;;;13.80;82.30;;;;;;4996498;28;20026;-53
2022/09/16 11:42:21;;;;;;;9.60;2.63;;;13.60;80.80;;;;;;4989723;28;20034;-55
2022/09/16 11:45:07;;;;;;;13.88;2.85;;;13.40;81.00;;;;;;4991532;28;20713;-56
2022/09/16 11:47:48;;;;;;;8.10;2.05;;;13.20;80.90;;;;;;5008410;28;20164;-53
2022/09/16 11:50:23;;;;;;;11.07;3.00;;;13.30;81.40;;;;;;5000410;28;20025;-50
2022/09/16 11:53:24;;;;;;;9.23;2.20;;;13.30;80.40;;;;;;4997741;28;20049;-55
2022/09/16 11:56:05;;;;;;;15.90;3.08;;;13.30;80.80;;;;;;4987315;28;20049;-53
2022/09/16 11:59:10;;;;;;;16.05;2.80;;;13.30;82.00;;;;;;4999496;28;20517;-52
2022/09/16 12:01:43;;;;;;;21.05;3.95;;;13.30;82.20;;;;;;5005081;28;20038;-50
2022/09/16 12:04:35;;;;;;;15.73;2.85;;;13.30;82.40;;;;;;4995956;28;20018;-55
2022/09/16 12:07:22;;;;;;;17.83;4.72;;;13.30;82.70;;;;;;4987889;28;20082;-54
2022/09/16 12:09:57;;;;;;;12.45;2.92;;;13.20;84.10;;;;;;4980122;28;20085;-56
2022/09/16 12:12:30;;;;;;;17.20;3.00;;;13.10;85.20;;;;;;4984504;28;20114;-56
2022/09/16 12:15:13;;;;;;;19.63;3.40;;;12.90;85.40;;;;;;4988236;28;20041;-61
2022/09/16 12:17:47;;;;;;;10.50;2.58;;;12.80;86.30;;;;;;4989945;28;20030;-58
2022/09/16 12:20:21;;;;;;;15.27;2.65;;;12.80;86.60;;;;;;4988979;28;20059;-61
2022/09/16 12:23:13;;;;;;;10.10;2.28;;;12.60;85.60;;;;;;5005268;28;20038;-64
2022/09/16 12:25:42;;;;;;;14.80;2.40;;;12.60;86.00;;;;;;4989824;28;20030;-64
2022/09/16 12:28:14;;;;;;;9.50;2.95;;;12.50;86.70;;;;;;4989568;28;20030;-65
2022/09/16 12:30:47;;;;;;;13.55;2.10;;;12.50;87.10;;;;;;4989061;28;20403;-63
2022/09/16 12:33:22;;;;;;;9.23;2.92;;;12.40;87.00;;;;;;5004878;28;20022;-64
2022/09/16 12:36:11;;;;;;;13.25;2.63;;;12.30;87.00;;;;;;4989128;28;20486;-64
2022/09/16 12:38:37;;;;;;;9.95;1.90;;;12.20;87.10;;;;;;4989433;28;20038;-64
2022/09/16 12:41:02;;;;;;;12.48;2.63;;;12.20;87.80;;;;;;4988001;28;20037;-64
2022/09/16 12:44:11;;;;;;;14.18;3.80;;;12.20;88.50;;;;;;4989413;28;20022;-64
2022/09/16 12:46:48;;;;;;;12.20;1.70;;;12.20;88.90;;;;;;4988393;28;20046;-65
2022/09/16 12:49:20;;;;;;;14.57;3.13;;;12.20;89.20;;;;;;5002343;28;20022;-65
2022/09/16 12:52:10;;;;;;;13.05;2.30;;;12.20;89.60;;;;;;4979846;28;20378;-64
2022/09/16 12:54:44;;;;;;;10.25;2.20;;;12.20;90.00;;;;;;4989249;28;20077;-65
2022/09/16 12:57:17;;;;;;;11.77;3.03;;;12.20;90.00;;;;;;4987984;28;20030;-64
2022/09/16 12:59:58;;;;;;;10.50;2.13;;;12.20;90.10;;;;;;5004254;28;20088;-65
2022/09/16 13:02:35;;;;;;;15.38;2.47;;;12.20;90.40;;;;;;5004245;28;20049;-63
2022/09/16 13:05:17;;;;;;;13.57;3.70;;;12.20;90.60;;;;;;4983699;28;20106;-64
2022/09/16 13:07:53;;;;;;;11.50;1.90;;;12.20;90.60;;;;;;4974652;28;20031;-64
2022/09/16 13:10:31;;;;;;;8.80;2.10;;;12.10;90.70;;;;;;4982019;28;20027;-64
2022/09/16 13:13:00;;;;;;;11.65;2.42;;;12.10;90.90;;;;;;4995692;28;20034;-64
2022/09/16 13:15:31;;;;;;;13.90;2.03;;;12.10;90.90;;;;;;4995137;28;20507;-65